Pagrindinis puslapis
METAR-TAF:

METAR-TAF

Oro uostai :

Bender Abasas, Iranas

platuma: 27-13N, ilguma: 056-22E, Aukštis: 10 m

Dabartinis oras

Ataskaita buvo paskelbta 21 minutes, ne 12:30 UTC
Vėjas 10 kt iš Pietvakarių
Temperatūra 39°C
Drėgmė 36%
Slėgis 1002 hPa
Matomumas: 1000 m
dulkės

METAR: OIKB 311230Z 22010KT 1000 DU NSC 39/21 Q1001 A2958

Laikas: 17:21 (12:51 UTC)

Prognozė

Ataskaita buvo paskelbta 1 valandą ir 21 minutes, ne 11:30 UTC
Prognozė galioja nuo 31 metu 12 UTC su 01 metu 18 UTC
Vėjas 8 kt iš Pietų
Matomumas: 1500 m
dulkės
Laikinai
nuo 31 metu 12 UTC su 31 metu 15 UTC
Vėjas 16 kt iš Vakarų/Pietvakarių
Tapsmas
nuo 31 metu 16 UTC su 31 metu 17 UTC
Matomumas: 5000 m
migla
Tikimybė 40%
nuo 31 metu 23 UTC su 01 metu 03 UTC
Matomumas: 3000 m
rūkana

TAF: OIKB 311130Z 3112/0118 19008KT 1500 DU NSC TEMPO 3112/3115 25016KT BECMG 3116/3117 5000 HZ PROB40 3123/0103 3000 BR

Orai ataskaitas ir orų prognozės (METAR, TAF).

turimą stotys yra geltonos ir raudonos taškus žemėlapyje.

Perkelti pele per norėdami pamatyti stoties vardą.

Tada spustelėkite, norėdami matyti oro stebėjimo ir prognozės.

Norėdami pakeisti žemėlapį: spustelėkite ant žalios mygtukų su juodo kryžiaus žemyn,; žalią mygtuką su brūkšneliu, jei norite nutolinti; arba žalių rodyklių gretimoms žemėlapius.


METAR-TAF: